createdAt,value
2023-04-11T00:00:20.460Z,9.64
2023-04-11T00:02:47.504Z,9.67
2023-04-11T00:05:14.512Z,9.59
2023-04-11T00:07:41.360Z,9.69
2023-04-11T00:10:08.589Z,9.65
2023-04-11T00:12:35.693Z,9.72
2023-04-11T00:15:02.635Z,9.54
2023-04-11T00:17:31.564Z,9.74
2023-04-11T00:20:01.808Z,9.63
2023-04-11T00:22:29.063Z,9.65
2023-04-11T00:24:55.918Z,9.61
2023-04-11T00:27:22.823Z,9.50
2023-04-11T00:29:49.800Z,9.48
2023-04-11T00:32:16.695Z,9.56
2023-04-11T00:34:43.539Z,9.40
2023-04-11T00:37:10.632Z,9.32
2023-04-11T00:39:38.465Z,9.48
2023-04-11T00:42:06.834Z,9.56
2023-04-11T00:44:34.077Z,9.63
2023-04-11T00:47:02.348Z,9.88
2023-04-11T00:49:30.333Z,9.65
2023-04-11T00:51:57.276Z,9.56
2023-04-11T00:54:29.315Z,9.57
2023-04-11T00:56:58.081Z,9.28
2023-04-11T00:59:25.841Z,9.31
2023-04-11T01:01:52.901Z,9.40
2023-04-11T01:04:21.380Z,9.39
2023-04-11T01:06:52.923Z,9.23
2023-04-11T01:09:24.633Z,9.28
2023-04-11T01:11:52.023Z,9.36
2023-04-11T01:14:19.335Z,9.23
2023-04-11T01:16:50.866Z,9.30
2023-04-11T01:19:21.248Z,9.24
2023-04-11T01:21:49.022Z,9.25
2023-04-11T01:24:16.221Z,9.47
2023-04-11T01:26:43.341Z,9.57
2023-04-11T01:29:10.474Z,9.40
2023-04-11T01:31:38.485Z,9.61
2023-04-11T01:34:05.778Z,9.62
2023-04-11T01:36:32.834Z,9.40
2023-04-11T01:38:59.776Z,9.45
2023-04-11T01:41:27.776Z,9.51
2023-04-11T01:43:54.750Z,9.31
2023-04-11T01:46:21.931Z,9.37
2023-04-11T01:48:50.653Z,9.18
2023-04-11T01:51:17.600Z,9.15
2023-04-11T01:53:47.447Z,9.34
2023-04-11T01:56:15.025Z,9.32
2023-04-11T01:58:42.174Z,9.12
2023-04-11T02:01:09.165Z,9.11
2023-04-11T02:03:37.176Z,9.26
2023-04-11T02:06:04.382Z,9.06
2023-04-11T02:08:31.414Z,9.06
2023-04-11T02:10:58.494Z,9.32
2023-04-11T02:13:25.449Z,9.27
2023-04-11T02:15:52.370Z,9.27
2023-04-11T02:18:19.305Z,9.40
2023-04-11T02:20:46.237Z,9.53
2023-04-11T02:23:14.452Z,9.49
2023-04-11T02:25:41.341Z,9.60
2023-04-11T02:28:08.416Z,9.42
2023-04-11T02:30:35.463Z,9.33
2023-04-11T02:33:03.286Z,9.38
2023-04-11T02:35:30.272Z,9.20
2023-04-11T02:38:00.758Z,9.08
2023-04-11T02:40:27.691Z,9.07
2023-04-11T02:42:54.558Z,9.13
2023-04-11T02:45:21.928Z,8.94
2023-04-11T02:47:48.906Z,9.08
2023-04-11T02:50:16.664Z,9.13
2023-04-11T02:52:49.515Z,9.09
2023-04-11T02:55:23.328Z,9.20
2023-04-11T02:57:51.426Z,9.27
2023-04-11T03:00:20.596Z,9.29
2023-04-11T03:02:52.607Z,9.29
2023-04-11T03:05:22.753Z,9.46
2023-04-11T03:07:52.771Z,9.40
2023-04-11T03:10:20.055Z,9.45
2023-04-11T03:12:46.939Z,9.51
2023-04-11T03:15:15.667Z,9.49
2023-04-11T03:17:42.809Z,9.59
2023-04-11T03:20:13.928Z,9.68
2023-04-11T03:22:46.856Z,9.69
2023-04-11T03:25:14.604Z,9.56
2023-04-11T03:27:42.990Z,9.44
2023-04-11T03:30:11.618Z,9.33
2023-04-11T03:32:42.259Z,9.46
2023-04-11T03:35:09.737Z,9.48
2023-04-11T03:37:40.647Z,9.44
2023-04-11T03:40:08.628Z,9.54
2023-04-11T03:42:38.266Z,9.72
2023-04-11T03:45:07.671Z,9.85
2023-04-11T03:47:35.368Z,9.68
2023-04-11T03:50:04.086Z,9.51
2023-04-11T03:52:37.861Z,9.01
2023-04-11T03:55:10.221Z,9.10
2023-04-11T03:57:37.103Z,9.01
2023-04-11T04:00:07.829Z,9.09
2023-04-11T04:02:42.300Z,9.19
2023-04-11T04:05:13.690Z,9.22
2023-04-11T04:07:42.705Z,9.30
2023-04-11T04:10:23.137Z,9.21
2023-04-11T04:12:53.236Z,9.52
2023-04-11T04:15:23.602Z,9.37
2023-04-11T04:17:53.818Z,9.16
2023-04-11T04:20:41.440Z,9.42
2023-04-11T04:23:08.854Z,9.18
2023-04-11T04:25:50.059Z,9.04
2023-04-11T04:28:22.630Z,9.14
2023-04-11T04:30:54.401Z,8.94
2023-04-11T04:33:25.281Z,9.15
2023-04-11T04:36:00.239Z,8.79
2023-04-11T04:38:31.070Z,8.83
2023-04-11T04:40:59.476Z,8.80
2023-04-11T04:43:32.408Z,8.74
2023-04-11T04:46:08.873Z,8.55
2023-04-11T04:48:43.372Z,8.75
2023-04-11T04:51:10.508Z,8.74
2023-04-11T04:53:39.037Z,8.71
2023-04-11T04:56:08.408Z,8.59
2023-04-11T04:58:41.194Z,8.75
2023-04-11T05:01:11.980Z,8.62
2023-04-11T05:03:39.313Z,8.77
2023-04-11T05:06:11.581Z,8.74
2023-04-11T05:08:39.812Z,8.70
2023-04-11T05:11:09.820Z,8.89
2023-04-11T05:13:37.992Z,8.85
2023-04-11T05:16:05.958Z,8.74
2023-04-11T05:18:32.905Z,8.69
2023-04-11T05:21:00.425Z,8.66
2023-04-11T05:23:33.603Z,8.82
2023-04-11T05:26:02.503Z,8.66
2023-04-11T05:28:31.910Z,8.65
2023-04-11T05:30:59.746Z,8.65
2023-04-11T05:33:26.866Z,8.61
2023-04-11T05:35:54.354Z,8.68
2023-04-11T05:38:21.232Z,8.70
2023-04-11T05:40:48.127Z,8.59
2023-04-11T05:43:15.344Z,8.58
2023-04-11T05:45:42.828Z,8.68
2023-04-11T05:48:09.927Z,8.81
2023-04-11T05:50:36.963Z,8.68
2023-04-11T05:53:03.914Z,8.73
2023-04-11T05:55:31.544Z,8.64
2023-04-11T05:57:58.467Z,8.79
2023-04-11T06:00:26.299Z,8.81
2023-04-11T06:02:53.303Z,8.73
2023-04-11T06:05:21.340Z,8.74
2023-04-11T06:07:48.357Z,8.68
2023-04-11T06:10:15.607Z,8.91
2023-04-11T06:12:42.558Z,8.80
2023-04-11T06:15:09.756Z,8.86
2023-04-11T06:17:36.683Z,9.03
2023-04-11T06:20:06.244Z,8.97
2023-04-11T06:22:33.280Z,9.03
2023-04-11T06:25:00.165Z,9.19
2023-04-11T06:27:27.110Z,8.92
2023-04-11T06:29:54.042Z,8.95
2023-04-11T06:32:22.025Z,9.10
2023-04-11T06:34:49.032Z,8.99
2023-04-11T06:37:15.831Z,8.91
2023-04-11T06:39:42.711Z,8.93
2023-04-11T06:42:09.581Z,8.85
2023-04-11T06:44:36.703Z,8.93
2023-04-11T06:47:03.835Z,8.89
2023-04-11T06:49:31.426Z,9.01
2023-04-11T06:51:59.564Z,8.86
2023-04-11T06:54:26.410Z,9.04
2023-04-11T06:56:53.307Z,9.05
2023-04-11T06:59:20.712Z,9.06
2023-04-11T07:01:47.892Z,8.81
2023-04-11T07:04:14.983Z,8.77
2023-04-11T07:06:41.954Z,8.77
2023-04-11T07:09:15.112Z,8.78
2023-04-11T07:11:41.995Z,8.85
2023-04-11T07:14:08.821Z,8.93
2023-04-11T07:16:35.794Z,8.86
2023-04-11T07:19:03.499Z,9.00
2023-04-11T07:21:32.469Z,9.12
2023-04-11T07:24:00.940Z,9.00
2023-04-11T07:26:32.338Z,9.02
2023-04-11T07:28:59.877Z,9.19
2023-04-11T07:31:27.527Z,9.19
2023-04-11T07:33:54.926Z,8.92
2023-04-11T07:36:22.077Z,9.03
2023-04-11T07:38:48.949Z,9.27
2023-04-11T07:41:16.501Z,9.16
2023-04-11T07:43:43.593Z,9.19
2023-04-11T07:46:12.473Z,9.15
2023-04-11T07:48:39.521Z,9.14
2023-04-11T07:51:06.484Z,8.97
2023-04-11T07:53:33.774Z,9.07
2023-04-11T07:56:00.855Z,8.92
2023-04-11T07:58:28.663Z,8.96
2023-04-11T08:00:55.582Z,8.89
2023-04-11T08:03:23.780Z,8.88
2023-04-11T08:05:51.040Z,8.92
2023-04-11T08:08:17.932Z,8.93
2023-04-11T08:10:44.909Z,8.93
2023-04-11T08:13:11.812Z,8.92
2023-04-11T08:15:39.137Z,8.96
2023-04-11T08:18:06.116Z,9.04
2023-04-11T08:20:33.067Z,9.08
2023-04-11T08:23:00.660Z,9.14
2023-04-11T08:25:27.531Z,9.33
2023-04-11T08:27:54.463Z,9.27
2023-04-11T08:30:21.489Z,9.14
2023-04-11T08:32:48.581Z,9.27
2023-04-11T08:35:15.524Z,9.21
2023-04-11T08:37:44.460Z,9.38
2023-04-11T08:40:11.794Z,9.42
2023-04-11T08:42:38.658Z,9.60
2023-04-11T08:45:08.714Z,9.57
2023-04-11T08:47:36.793Z,9.67
2023-04-11T08:50:04.434Z,9.61
2023-04-11T08:52:31.748Z,9.34
2023-04-11T08:54:58.702Z,9.32
2023-04-11T08:57:26.639Z,9.41
2023-04-11T08:59:57.304Z,9.38
2023-04-11T09:02:24.360Z,9.61
2023-04-11T09:04:51.808Z,9.87
2023-04-11T09:07:19.328Z,9.72
2023-04-11T09:09:46.578Z,9.73
2023-04-11T09:12:13.613Z,9.78
2023-04-11T09:14:40.798Z,9.58
2023-04-11T09:17:14.488Z,9.43
2023-04-11T09:19:46.273Z,9.54
2023-04-11T09:22:15.870Z,9.53
2023-04-11T09:24:43.092Z,9.48
2023-04-11T09:27:10.080Z,9.48
2023-04-11T09:29:40.837Z,9.46
2023-04-11T09:32:08.040Z,9.36
2023-04-11T09:34:37.796Z,9.45
2023-04-11T09:37:05.012Z,9.46
2023-04-11T09:39:32.838Z,9.53
2023-04-11T09:41:59.753Z,9.72
2023-04-11T09:44:37.567Z,9.83
2023-04-11T09:47:04.701Z,9.61
2023-04-11T09:49:33.111Z,9.61
2023-04-11T09:52:01.092Z,9.72
2023-04-11T09:54:28.894Z,9.74
2023-04-11T09:56:57.260Z,9.92
2023-04-11T09:59:26.406Z,9.87
2023-04-11T10:01:53.465Z,9.82
2023-04-11T10:04:20.731Z,9.94
2023-04-11T10:07:03.870Z,10.26
2023-04-11T10:09:31.530Z,9.94
2023-04-11T10:11:58.518Z,9.92
2023-04-11T10:14:37.809Z,10.16
2023-04-11T10:17:17.720Z,10.00
2023-04-11T10:19:48.265Z,9.91
2023-04-11T10:22:33.548Z,9.93
2023-04-11T10:25:19.494Z,9.96
2023-04-11T10:28:06.276Z,9.93
2023-04-11T10:30:42.111Z,9.98
2023-04-11T10:33:17.538Z,9.74
2023-04-11T10:35:59.766Z,9.70
2023-04-11T10:38:43.425Z,9.91
2023-04-11T10:41:17.682Z,9.65
2023-04-11T10:43:45.355Z,9.71
2023-04-11T10:46:25.468Z,9.81
2023-04-11T10:49:05.324Z,9.78
2023-04-11T10:51:33.603Z,9.79
2023-04-11T10:54:01.523Z,9.65
2023-04-11T10:56:46.932Z,9.65
2023-04-11T10:59:37.051Z,9.90
2023-04-11T11:02:04.028Z,10.03
2023-04-11T11:04:32.433Z,9.87
2023-04-11T11:07:00.018Z,9.90
2023-04-11T11:09:29.036Z,10.01
2023-04-11T11:12:06.639Z,10.02
2023-04-11T11:14:33.565Z,10.15
2023-04-11T11:17:00.961Z,10.04
2023-04-11T11:19:28.061Z,10.06
2023-04-11T11:21:55.210Z,10.18
2023-04-11T11:24:25.569Z,10.36
2023-04-11T11:26:53.771Z,10.15
2023-04-11T11:29:39.842Z,10.33
2023-04-11T11:32:07.220Z,10.38
2023-04-11T11:34:34.875Z,10.56
2023-04-11T11:37:04.907Z,10.32
2023-04-11T11:39:32.310Z,10.45
2023-04-11T11:41:59.420Z,10.23
2023-04-11T11:44:27.664Z,10.30
2023-04-11T11:47:21.024Z,10.40
2023-04-11T11:49:49.118Z,10.18
2023-04-11T11:52:34.974Z,10.32
2023-04-11T11:55:08.085Z,10.12
2023-04-11T11:57:37.422Z,10.19
2023-04-11T12:00:10.373Z,10.25
2023-04-11T12:02:38.803Z,10.29
2023-04-11T12:05:07.026Z,10.13
2023-04-11T12:07:36.903Z,10.20
2023-04-11T12:10:08.264Z,9.96
2023-04-11T12:12:38.669Z,10.08
2023-04-11T12:15:16.840Z,10.30
2023-04-11T12:17:44.148Z,10.16
2023-04-11T12:20:11.361Z,10.26
2023-04-11T12:22:38.514Z,10.31
2023-04-11T12:25:09.918Z,10.15
2023-04-11T12:27:37.527Z,10.21
2023-04-11T12:30:04.917Z,10.31
2023-04-11T12:32:34.152Z,10.40
2023-04-11T12:35:01.410Z,10.39
2023-04-11T12:37:28.317Z,10.30
2023-04-11T12:39:55.202Z,10.32
2023-04-11T12:42:26.749Z,10.29
2023-04-11T12:44:54.476Z,10.18
2023-04-11T12:47:21.502Z,10.38
2023-04-11T12:49:48.441Z,10.20
2023-04-11T12:52:15.770Z,10.27
2023-04-11T12:54:42.820Z,10.18
2023-04-11T12:57:09.842Z,10.08
2023-04-11T12:59:36.786Z,10.15
2023-04-11T13:02:03.944Z,10.31
2023-04-11T13:04:31.340Z,10.19
2023-04-11T13:07:01.560Z,10.10
2023-04-11T13:09:34.430Z,10.09
2023-04-11T13:12:04.132Z,10.15
2023-04-11T13:14:31.204Z,10.03
2023-04-11T13:16:58.067Z,10.35
2023-04-11T13:19:25.078Z,10.31
2023-04-11T13:21:51.956Z,10.16
2023-04-11T13:24:18.835Z,10.32
2023-04-11T13:26:45.989Z,10.24
2023-04-11T13:29:12.968Z,10.05
2023-04-11T13:31:40.024Z,10.12
2023-04-11T13:34:06.984Z,9.87
2023-04-11T13:36:33.889Z,9.85
2023-04-11T13:39:00.720Z,9.79
2023-04-11T13:41:27.556Z,9.78
2023-04-11T13:43:54.588Z,9.61
2023-04-11T13:46:21.946Z,9.57
2023-04-11T13:48:49.042Z,9.53
2023-04-11T13:51:16.099Z,9.49
2023-04-11T13:53:42.930Z,9.63
2023-04-11T13:56:10.697Z,9.58
2023-04-11T13:58:38.556Z,9.47
2023-04-11T14:01:06.862Z,9.70
2023-04-11T14:03:34.074Z,9.70
2023-04-11T14:06:01.683Z,9.71
2023-04-11T14:08:29.102Z,9.82
2023-04-11T14:10:56.168Z,9.74
2023-04-11T14:13:23.944Z,9.62
2023-04-11T14:16:04.854Z,9.70
2023-04-11T14:18:34.665Z,9.74
2023-04-11T14:21:01.961Z,9.54
2023-04-11T14:23:29.387Z,9.49
2023-04-11T14:25:56.868Z,9.36
2023-04-11T14:28:26.562Z,9.35
2023-04-11T14:30:53.927Z,9.41
2023-04-11T14:33:21.202Z,9.36
2023-04-11T14:35:48.230Z,9.27
2023-04-11T14:38:16.036Z,9.27
2023-04-11T14:40:43.102Z,9.45
2023-04-11T14:43:10.088Z,9.47
2023-04-11T14:45:37.158Z,9.46
2023-04-11T14:48:04.170Z,9.64
2023-04-11T14:50:31.481Z,9.61
2023-04-11T14:52:58.498Z,9.54
2023-04-11T14:55:25.466Z,9.51
2023-04-11T14:57:53.575Z,9.41
2023-04-11T15:00:22.046Z,9.35
2023-04-11T15:02:51.066Z,9.40
2023-04-11T15:05:19.677Z,9.35
2023-04-11T15:07:48.221Z,9.33
2023-04-11T15:10:16.764Z,9.37
2023-04-11T15:12:43.823Z,9.35
2023-04-11T15:15:11.354Z,9.33
2023-04-11T15:17:48.536Z,9.49
2023-04-11T15:20:16.101Z,9.31
2023-04-11T15:22:44.113Z,9.32
2023-04-11T15:25:12.237Z,9.50
2023-04-11T15:27:39.340Z,9.53
2023-04-11T15:30:06.831Z,9.34
2023-04-11T15:32:34.046Z,9.47
2023-04-11T15:35:01.211Z,9.44
2023-04-11T15:37:28.251Z,9.52
2023-04-11T15:39:55.582Z,9.62
2023-04-11T15:42:22.573Z,9.54
2023-04-11T15:44:49.449Z,9.50
2023-04-11T15:47:16.842Z,9.59
2023-04-11T15:49:43.880Z,9.50
2023-04-11T15:52:11.264Z,9.50
2023-04-11T15:54:38.171Z,9.53
2023-04-11T15:57:05.117Z,9.43
2023-04-11T15:59:31.986Z,9.39
2023-04-11T16:01:58.917Z,9.30
2023-04-11T16:04:27.400Z,9.32
2023-04-11T16:06:54.551Z,9.34
2023-04-11T16:09:21.450Z,9.27
2023-04-11T16:11:48.490Z,9.51
2023-04-11T16:14:15.699Z,9.45
2023-04-11T16:16:44.780Z,9.38
2023-04-11T16:19:11.714Z,9.43
2023-04-11T16:21:38.982Z,9.38
2023-04-11T16:24:06.066Z,9.22
2023-04-11T16:26:32.883Z,9.36
2023-04-11T16:28:59.781Z,9.27
2023-04-11T16:31:27.355Z,9.30
2023-04-11T16:33:55.395Z,9.17
2023-04-11T16:36:22.545Z,9.23
2023-04-11T16:38:50.064Z,9.23
2023-04-11T16:41:17.532Z,9.26
2023-04-11T16:43:44.745Z,9.24
2023-04-11T16:46:13.332Z,9.23
2023-04-11T16:48:43.523Z,9.23
2023-04-11T16:51:11.528Z,9.10
2023-04-11T16:53:38.922Z,9.09
2023-04-11T16:56:06.176Z,9.18
2023-04-11T16:58:33.828Z,9.07
2023-04-11T17:01:01.534Z,9.04
2023-04-11T17:03:28.933Z,9.01
2023-04-11T17:05:56.202Z,9.05
2023-04-11T17:08:23.214Z,9.15
2023-04-11T17:10:50.132Z,9.05
2023-04-11T17:13:18.827Z,9.06
2023-04-11T17:15:46.517Z,9.08
2023-04-11T17:18:15.073Z,8.92
2023-04-11T17:20:43.642Z,8.96
2023-04-11T17:23:10.820Z,8.97
2023-04-11T17:25:37.720Z,8.97
2023-04-11T17:28:04.740Z,8.93
2023-04-11T17:30:32.591Z,8.89
2023-04-11T17:32:59.877Z,8.97
2023-04-11T17:35:28.060Z,8.87
2023-04-11T17:37:57.899Z,8.89
2023-04-11T17:40:24.924Z,8.82
2023-04-11T17:42:51.821Z,8.78
2023-04-11T17:45:19.396Z,8.95
2023-04-11T17:47:48.850Z,8.81
2023-04-11T17:50:16.564Z,8.85
2023-04-11T17:52:44.564Z,8.99
2023-04-11T17:55:13.104Z,9.03
2023-04-11T17:57:40.413Z,8.93
2023-04-11T18:00:28.364Z,9.03
2023-04-11T18:02:57.933Z,8.98
2023-04-11T18:05:26.696Z,9.03
2023-04-11T18:07:55.109Z,8.93
2023-04-11T18:10:23.126Z,9.00
2023-04-11T18:12:51.653Z,8.93
2023-04-11T18:15:18.798Z,8.89
2023-04-11T18:17:46.287Z,8.85
2023-04-11T18:20:14.372Z,8.89
2023-04-11T18:22:42.070Z,8.87
2023-04-11T18:25:09.224Z,8.90
2023-04-11T18:27:37.376Z,8.87
2023-04-11T18:30:05.366Z,9.02
2023-04-11T18:32:37.291Z,8.84
2023-04-11T18:35:11.885Z,8.98
2023-04-11T18:37:40.729Z,9.06
2023-04-11T18:40:14.355Z,9.13
2023-04-11T18:42:42.611Z,9.12
2023-04-11T18:45:13.994Z,9.22
2023-04-11T18:47:42.130Z,9.19
2023-04-11T18:50:09.446Z,9.08
2023-04-11T18:52:36.560Z,9.00
2023-04-11T18:55:03.774Z,9.06
2023-04-11T18:57:34.520Z,9.05
2023-04-11T19:00:13.272Z,8.93
2023-04-11T19:02:41.576Z,8.89
2023-04-11T19:05:13.609Z,8.88
2023-04-11T19:07:41.898Z,8.84
2023-04-11T19:10:10.124Z,8.84
2023-04-11T19:12:37.377Z,8.77
2023-04-11T19:15:08.236Z,8.85
2023-04-11T19:17:36.682Z,8.82
2023-04-11T19:20:07.334Z,8.85
2023-04-11T19:22:36.044Z,8.88
2023-04-11T19:25:03.029Z,8.98
2023-04-11T19:27:29.973Z,8.99
2023-04-11T19:29:57.243Z,8.94
2023-04-11T19:32:24.304Z,9.00
2023-04-11T19:34:51.505Z,8.97
2023-04-11T19:37:19.614Z,9.09
2023-04-11T19:39:46.586Z,9.05
2023-04-11T19:42:13.548Z,9.05
2023-04-11T19:44:40.550Z,9.11
2023-04-11T19:47:07.546Z,9.06
2023-04-11T19:49:34.610Z,9.18
2023-04-11T19:52:01.512Z,9.19
2023-04-11T19:54:28.451Z,9.13
2023-04-11T19:56:55.425Z,9.23
2023-04-11T19:59:22.350Z,9.26
2023-04-11T20:01:49.241Z,9.25
2023-04-11T20:04:17.700Z,9.40
2023-04-11T20:06:44.711Z,9.31
2023-04-11T20:09:11.945Z,9.27
2023-04-11T20:11:39.231Z,9.20
2023-04-11T20:14:07.272Z,9.22
2023-04-11T20:16:34.771Z,9.24
2023-04-11T20:19:02.309Z,9.23
2023-04-11T20:21:29.241Z,9.13
2023-04-11T20:23:56.327Z,8.96
2023-04-11T20:26:23.640Z,8.96
2023-04-11T20:28:50.601Z,8.97
2023-04-11T20:31:17.571Z,9.03
2023-04-11T20:33:45.494Z,9.03
2023-04-11T20:36:12.723Z,8.99
2023-04-11T20:38:39.664Z,9.01
2023-04-11T20:41:08.861Z,9.03
2023-04-11T20:43:41.869Z,9.18
2023-04-11T20:46:08.874Z,9.23
2023-04-11T20:48:36.054Z,9.15
2023-04-11T20:51:02.940Z,9.25
2023-04-11T20:53:29.830Z,9.17
2023-04-11T20:55:56.836Z,9.21
2023-04-11T20:58:23.982Z,8.98
2023-04-11T21:00:51.024Z,9.09
2023-04-11T21:03:17.942Z,9.01
2023-04-11T21:05:46.750Z,8.94
2023-04-11T21:08:14.134Z,8.96
2023-04-11T21:10:41.196Z,8.94
2023-04-11T21:13:08.328Z,9.17
2023-04-11T21:15:35.264Z,9.05
2023-04-11T21:18:02.489Z,9.17
2023-04-11T21:20:29.839Z,9.35
2023-04-11T21:22:56.807Z,9.30
2023-04-11T21:25:24.232Z,9.34
2023-04-11T21:27:51.393Z,9.24
2023-04-11T21:30:18.367Z,9.22
2023-04-11T21:32:45.627Z,9.42
2023-04-11T21:35:12.577Z,9.36
2023-04-11T21:37:39.571Z,9.45
2023-04-11T21:40:06.804Z,9.30
2023-04-11T21:42:33.778Z,9.25
2023-04-11T21:45:00.796Z,9.19
2023-04-11T21:47:27.832Z,9.25
2023-04-11T21:49:54.893Z,9.30
2023-04-11T21:52:21.779Z,9.40
2023-04-11T21:54:48.658Z,9.56
2023-04-11T21:57:15.620Z,9.44
2023-04-11T21:59:42.490Z,9.35
2023-04-11T22:02:09.522Z,9.29
2023-04-11T22:04:47.529Z,9.25
2023-04-11T22:07:26.634Z,9.19
2023-04-11T22:09:59.791Z,9.23
2023-04-11T22:12:29.692Z,9.38
2023-04-11T22:14:57.353Z,9.25
2023-04-11T22:17:24.310Z,9.18
2023-04-11T22:19:51.202Z,9.21
2023-04-11T22:22:18.860Z,9.33
2023-04-11T22:24:48.934Z,9.07
2023-04-11T22:27:18.412Z,9.02
2023-04-11T22:29:45.706Z,8.87
2023-04-11T22:32:12.700Z,8.86
2023-04-11T22:34:41.115Z,8.90
2023-04-11T22:37:07.992Z,8.89
2023-04-11T22:39:34.958Z,8.90
2023-04-11T22:42:01.911Z,8.86
2023-04-11T22:44:28.798Z,8.93
2023-04-11T22:47:00.729Z,8.85
2023-04-11T22:49:27.908Z,8.90
2023-04-11T22:51:59.463Z,8.81
2023-04-11T22:54:27.455Z,8.78
2023-04-11T22:56:57.751Z,8.95
2023-04-11T22:59:25.044Z,8.94
2023-04-11T23:01:52.731Z,8.88
2023-04-11T23:04:20.801Z,8.83
2023-04-11T23:06:51.492Z,8.91
2023-04-11T23:09:18.508Z,8.91
2023-04-11T23:11:46.003Z,8.84
2023-04-11T23:14:14.543Z,8.92
2023-04-11T23:16:41.873Z,8.91
2023-04-11T23:19:09.263Z,8.89
2023-04-11T23:21:37.298Z,8.93
2023-04-11T23:24:05.375Z,8.99
2023-04-11T23:26:32.436Z,8.89
2023-04-11T23:29:00.411Z,9.05
2023-04-11T23:31:27.514Z,9.16
2023-04-11T23:33:54.816Z,9.30
2023-04-11T23:36:22.093Z,9.72
2023-04-11T23:38:48.982Z,9.83
2023-04-11T23:41:15.918Z,9.50
2023-04-11T23:43:42.915Z,9.36
2023-04-11T23:46:10.084Z,9.02
2023-04-11T23:48:37.200Z,8.96
2023-04-11T23:51:04.187Z,8.98
2023-04-11T23:53:31.833Z,9.00
2023-04-11T23:55:58.841Z,8.95
2023-04-11T23:58:25.771Z,8.88
